sensor_id;sensor_type;location;lat;lon;timestamp;P1;durP1;ratioP1;P2;durP2;ratioP2
2538;SDS011;1280;49.760;9.664;2022-09-09T00:00:11;5.20;;;1.43;;
2538;SDS011;1280;49.760;9.664;2022-09-09T00:02:42;4.73;;;1.30;;
2538;SDS011;1280;49.760;9.664;2022-09-09T00:05:19;4.77;;;1.50;;
2538;SDS011;1280;49.760;9.664;2022-09-09T00:07:53;5.53;;;1.37;;
2538;SDS011;1280;49.760;9.664;2022-09-09T00:10:26;5.40;;;1.70;;
2538;SDS011;1280;49.760;9.664;2022-09-09T00:13:00;4.90;;;1.33;;
2538;SDS011;1280;49.760;9.664;2022-09-09T00:15:36;5.00;;;1.60;;
2538;SDS011;1280;49.760;9.664;2022-09-09T00:18:11;6.30;;;1.60;;
2538;SDS011;1280;49.760;9.664;2022-09-09T00:20:47;6.57;;;1.40;;
2538;SDS011;1280;49.760;9.664;2022-09-09T00:23:24;5.97;;;1.20;;
2538;SDS011;1280;49.760;9.664;2022-09-09T00:25:58;4.13;;;1.20;;
2538;SDS011;1280;49.760;9.664;2022-09-09T00:28:33;5.57;;;1.40;;
2538;SDS011;1280;49.760;9.664;2022-09-09T00:31:09;3.60;;;1.07;;
2538;SDS011;1280;49.760;9.664;2022-09-09T00:33:40;5.13;;;1.47;;
2538;SDS011;1280;49.760;9.664;2022-09-09T00:36:13;4.37;;;1.00;;
2538;SDS011;1280;49.760;9.664;2022-09-09T00:38:45;4.23;;;1.20;;
2538;SDS011;1280;49.760;9.664;2022-09-09T00:41:19;6.63;;;2.10;;
2538;SDS011;1280;49.760;9.664;2022-09-09T00:43:55;5.43;;;1.20;;
2538;SDS011;1280;49.760;9.664;2022-09-09T00:46:48;5.00;;;1.40;;
2538;SDS011;1280;49.760;9.664;2022-09-09T00:49:26;3.80;;;1.00;;
2538;SDS011;1280;49.760;9.664;2022-09-09T00:52:14;4.70;;;1.20;;
2538;SDS011;1280;49.760;9.664;2022-09-09T00:54:52;4.57;;;1.30;;
2538;SDS011;1280;49.760;9.664;2022-09-09T00:57:28;3.70;;;0.97;;
2538;SDS011;1280;49.760;9.664;2022-09-09T00:59:59;4.70;;;1.30;;
2538;SDS011;1280;49.760;9.664;2022-09-09T01:02:47;4.50;;;1.00;;
2538;SDS011;1280;49.760;9.664;2022-09-09T01:05:25;3.80;;;1.20;;
2538;SDS011;1280;49.760;9.664;2022-09-09T01:08:03;5.87;;;1.30;;
2538;SDS011;1280;49.760;9.664;2022-09-09T01:10:41;3.60;;;1.10;;
2538;SDS011;1280;49.760;9.664;2022-09-09T01:13:17;7.40;;;1.30;;
2538;SDS011;1280;49.760;9.664;2022-09-09T01:15:52;8.37;;;1.30;;
2538;SDS011;1280;49.760;9.664;2022-09-09T01:18:28;5.10;;;1.10;;
2538;SDS011;1280;49.760;9.664;2022-09-09T01:21:03;6.33;;;1.30;;
2538;SDS011;1280;49.760;9.664;2022-09-09T01:26:52;6.53;;;1.40;;
2538;SDS011;1280;49.760;9.664;2022-09-09T01:29:25;5.90;;;1.73;;
2538;SDS011;1280;49.760;9.664;2022-09-09T01:31:54;4.00;;;1.20;;
2538;SDS011;1280;49.760;9.664;2022-09-09T01:34:24;5.43;;;1.27;;
2538;SDS011;1280;49.760;9.664;2022-09-09T01:36:56;7.27;;;1.50;;
2538;SDS011;1280;49.760;9.664;2022-09-09T01:39:26;5.17;;;1.43;;
2538;SDS011;1280;49.760;9.664;2022-09-09T01:42:01;8.93;;;1.60;;
2538;SDS011;1280;49.760;9.664;2022-09-09T01:44:30;5.67;;;1.40;;
2538;SDS011;1280;49.760;9.664;2022-09-09T01:47:00;6.53;;;1.63;;
2538;SDS011;1280;49.760;9.664;2022-09-09T01:49:28;3.93;;;1.33;;
2538;SDS011;1280;49.760;9.664;2022-09-09T01:51:57;6.90;;;1.67;;
2538;SDS011;1280;49.760;9.664;2022-09-09T01:54:31;5.07;;;1.43;;
2538;SDS011;1280;49.760;9.664;2022-09-09T01:57:11;8.30;;;1.83;;
2538;SDS011;1280;49.760;9.664;2022-09-09T01:59:53;4.17;;;1.20;;
2538;SDS011;1280;49.760;9.664;2022-09-09T02:02:42;6.70;;;1.47;;
2538;SDS011;1280;49.760;9.664;2022-09-09T02:05:23;6.33;;;1.80;;
2538;SDS011;1280;49.760;9.664;2022-09-09T02:08:00;4.97;;;1.80;;
2538;SDS011;1280;49.760;9.664;2022-09-09T02:10:45;6.60;;;1.50;;
2538;SDS011;1280;49.760;9.664;2022-09-09T02:13:31;4.50;;;1.30;;
2538;SDS011;1280;49.760;9.664;2022-09-09T02:16:03;5.43;;;1.63;;
2538;SDS011;1280;49.760;9.664;2022-09-09T02:18:35;5.83;;;1.60;;
2538;SDS011;1280;49.760;9.664;2022-09-09T02:21:13;4.37;;;1.50;;
2538;SDS011;1280;49.760;9.664;2022-09-09T02:23:43;6.80;;;1.80;;
2538;SDS011;1280;49.760;9.664;2022-09-09T02:26:14;5.50;;;1.60;;
2538;SDS011;1280;49.760;9.664;2022-09-09T02:28:54;6.30;;;1.83;;
2538;SDS011;1280;49.760;9.664;2022-09-09T02:31:24;5.27;;;1.60;;
2538;SDS011;1280;49.760;9.664;2022-09-09T02:33:58;5.37;;;1.90;;
2538;SDS011;1280;49.760;9.664;2022-09-09T02:36:30;4.60;;;1.63;;
2538;SDS011;1280;49.760;9.664;2022-09-09T02:39:02;5.50;;;1.70;;
2538;SDS011;1280;49.760;9.664;2022-09-09T02:41:35;7.70;;;1.77;;
2538;SDS011;1280;49.760;9.664;2022-09-09T02:44:08;5.23;;;1.63;;
2538;SDS011;1280;49.760;9.664;2022-09-09T02:46:46;4.10;;;1.40;;
2538;SDS011;1280;49.760;9.664;2022-09-09T02:49:28;9.80;;;1.73;;
2538;SDS011;1280;49.760;9.664;2022-09-09T02:52:04;5.53;;;1.87;;
2538;SDS011;1280;49.760;9.664;2022-09-09T02:54:37;6.83;;;1.63;;
2538;SDS011;1280;49.760;9.664;2022-09-09T02:57:11;6.90;;;1.93;;
2538;SDS011;1280;49.760;9.664;2022-09-09T02:59:45;6.83;;;1.90;;
2538;SDS011;1280;49.760;9.664;2022-09-09T03:02:14;6.07;;;1.60;;
2538;SDS011;1280;49.760;9.664;2022-09-09T03:04:45;5.73;;;1.73;;
2538;SDS011;1280;49.760;9.664;2022-09-09T03:07:17;6.83;;;1.80;;
2538;SDS011;1280;49.760;9.664;2022-09-09T03:09:47;6.97;;;2.13;;
2538;SDS011;1280;49.760;9.664;2022-09-09T03:12:16;4.80;;;1.53;;
2538;SDS011;1280;49.760;9.664;2022-09-09T03:14:45;5.20;;;1.60;;
2538;SDS011;1280;49.760;9.664;2022-09-09T03:17:13;4.60;;;1.90;;
2538;SDS011;1280;49.760;9.664;2022-09-09T03:19:48;4.37;;;1.70;;
2538;SDS011;1280;49.760;9.664;2022-09-09T03:22:18;5.70;;;2.33;;
2538;SDS011;1280;49.760;9.664;2022-09-09T03:24:47;9.10;;;1.80;;
2538;SDS011;1280;49.760;9.664;2022-09-09T03:27:16;5.73;;;1.90;;
2538;SDS011;1280;49.760;9.664;2022-09-09T03:29:47;8.53;;;1.50;;
2538;SDS011;1280;49.760;9.664;2022-09-09T03:32:21;4.90;;;1.57;;
2538;SDS011;1280;49.760;9.664;2022-09-09T03:34:53;6.00;;;1.87;;
2538;SDS011;1280;49.760;9.664;2022-09-09T03:37:21;7.80;;;2.00;;
2538;SDS011;1280;49.760;9.664;2022-09-09T03:39:50;8.97;;;2.20;;
2538;SDS011;1280;49.760;9.664;2022-09-09T03:42:18;5.03;;;1.77;;
2538;SDS011;1280;49.760;9.664;2022-09-09T03:44:51;8.13;;;1.80;;
2538;SDS011;1280;49.760;9.664;2022-09-09T03:47:22;5.63;;;1.80;;
2538;SDS011;1280;49.760;9.664;2022-09-09T03:49:55;5.07;;;1.50;;
2538;SDS011;1280;49.760;9.664;2022-09-09T03:52:22;7.73;;;1.80;;
2538;SDS011;1280;49.760;9.664;2022-09-09T03:54:52;5.10;;;1.40;;
2538;SDS011;1280;49.760;9.664;2022-09-09T03:57:23;5.67;;;1.80;;
2538;SDS011;1280;49.760;9.664;2022-09-09T03:59:52;5.37;;;1.40;;
2538;SDS011;1280;49.760;9.664;2022-09-09T04:02:20;7.70;;;1.77;;
2538;SDS011;1280;49.760;9.664;2022-09-09T04:04:48;7.20;;;2.07;;
2538;SDS011;1280;49.760;9.664;2022-09-09T04:07:16;4.60;;;1.80;;
2538;SDS011;1280;49.760;9.664;2022-09-09T04:09:44;6.30;;;2.03;;
2538;SDS011;1280;49.760;9.664;2022-09-09T04:12:13;6.70;;;1.83;;
2538;SDS011;1280;49.760;9.664;2022-09-09T04:14:42;4.67;;;1.67;;
2538;SDS011;1280;49.760;9.664;2022-09-09T04:17:12;6.17;;;2.00;;
2538;SDS011;1280;49.760;9.664;2022-09-09T04:19:40;4.70;;;1.90;;
2538;SDS011;1280;49.760;9.664;2022-09-09T04:22:09;6.60;;;1.90;;
2538;SDS011;1280;49.760;9.664;2022-09-09T04:24:37;7.13;;;2.10;;
2538;SDS011;1280;49.760;9.664;2022-09-09T04:27:06;7.43;;;2.47;;
2538;SDS011;1280;49.760;9.664;2022-09-09T04:29:35;5.43;;;1.63;;
2538;SDS011;1280;49.760;9.664;2022-09-09T04:32:03;8.10;;;1.47;;
2538;SDS011;1280;49.760;9.664;2022-09-09T04:34:33;6.20;;;2.17;;
2538;SDS011;1280;49.760;9.664;2022-09-09T04:37:01;5.77;;;1.73;;
2538;SDS011;1280;49.760;9.664;2022-09-09T04:39:29;7.50;;;1.80;;
2538;SDS011;1280;49.760;9.664;2022-09-09T04:41:58;7.00;;;1.70;;
2538;SDS011;1280;49.760;9.664;2022-09-09T04:44:26;7.87;;;1.87;;
2538;SDS011;1280;49.760;9.664;2022-09-09T04:46:54;7.00;;;1.70;;
2538;SDS011;1280;49.760;9.664;2022-09-09T04:49:23;5.07;;;2.07;;
2538;SDS011;1280;49.760;9.664;2022-09-09T04:51:54;7.13;;;1.60;;
2538;SDS011;1280;49.760;9.664;2022-09-09T04:54:22;6.13;;;2.10;;
2538;SDS011;1280;49.760;9.664;2022-09-09T04:56:51;7.40;;;1.40;;
2538;SDS011;1280;49.760;9.664;2022-09-09T04:59:20;8.43;;;2.03;;
2538;SDS011;1280;49.760;9.664;2022-09-09T05:01:52;4.80;;;1.33;;
2538;SDS011;1280;49.760;9.664;2022-09-09T05:04:21;4.60;;;1.57;;
2538;SDS011;1280;49.760;9.664;2022-09-09T05:06:49;6.93;;;1.80;;
2538;SDS011;1280;49.760;9.664;2022-09-09T05:09:18;5.17;;;1.70;;
2538;SDS011;1280;49.760;9.664;2022-09-09T05:11:47;6.43;;;1.63;;
2538;SDS011;1280;49.760;9.664;2022-09-09T05:14:28;5.90;;;1.60;;
2538;SDS011;1280;49.760;9.664;2022-09-09T05:16:58;6.20;;;1.53;;
2538;SDS011;1280;49.760;9.664;2022-09-09T05:19:26;4.40;;;1.60;;
2538;SDS011;1280;49.760;9.664;2022-09-09T05:21:54;5.43;;;1.70;;
2538;SDS011;1280;49.760;9.664;2022-09-09T05:24:31;9.77;;;1.90;;
2538;SDS011;1280;49.760;9.664;2022-09-09T05:27:01;7.27;;;1.77;;
2538;SDS011;1280;49.760;9.664;2022-09-09T05:29:32;5.77;;;1.70;;
2538;SDS011;1280;49.760;9.664;2022-09-09T05:32:03;4.87;;;1.40;;
2538;SDS011;1280;49.760;9.664;2022-09-09T05:34:32;7.10;;;1.93;;
2538;SDS011;1280;49.760;9.664;2022-09-09T05:37:00;7.50;;;1.80;;
2538;SDS011;1280;49.760;9.664;2022-09-09T05:39:28;5.00;;;1.53;;
2538;SDS011;1280;49.760;9.664;2022-09-09T05:41:57;5.77;;;1.40;;
2538;SDS011;1280;49.760;9.664;2022-09-09T05:44:25;5.57;;;2.53;;
2538;SDS011;1280;49.760;9.664;2022-09-09T05:46:54;7.80;;;1.53;;
2538;SDS011;1280;49.760;9.664;2022-09-09T05:49:22;6.97;;;1.90;;
2538;SDS011;1280;49.760;9.664;2022-09-09T05:51:50;6.40;;;2.00;;
2538;SDS011;1280;49.760;9.664;2022-09-09T05:54:19;8.30;;;1.63;;
2538;SDS011;1280;49.760;9.664;2022-09-09T05:56:50;4.33;;;1.17;;
2538;SDS011;1280;49.760;9.664;2022-09-09T05:59:21;5.33;;;1.50;;
2538;SDS011;1280;49.760;9.664;2022-09-09T06:01:52;5.87;;;1.40;;
2538;SDS011;1280;49.760;9.664;2022-09-09T06:04:26;4.40;;;1.20;;
2538;SDS011;1280;49.760;9.664;2022-09-09T06:06:54;5.33;;;1.13;;
2538;SDS011;1280;49.760;9.664;2022-09-09T06:09:22;4.73;;;1.43;;
2538;SDS011;1280;49.760;9.664;2022-09-09T06:11:50;3.97;;;1.30;;
2538;SDS011;1280;49.760;9.664;2022-09-09T06:14:21;4.47;;;1.40;;
2538;SDS011;1280;49.760;9.664;2022-09-09T06:16:50;4.10;;;1.37;;
2538;SDS011;1280;49.760;9.664;2022-09-09T06:19:25;4.90;;;1.30;;
2538;SDS011;1280;49.760;9.664;2022-09-09T06:21:56;6.00;;;1.10;;
2538;SDS011;1280;49.760;9.664;2022-09-09T06:24:26;5.00;;;1.17;;
2538;SDS011;1280;49.760;9.664;2022-09-09T06:26:57;3.87;;;1.03;;
2538;SDS011;1280;49.760;9.664;2022-09-09T06:29:29;3.57;;;1.10;;
2538;SDS011;1280;49.760;9.664;2022-09-09T06:31:57;5.50;;;1.13;;
2538;SDS011;1280;49.760;9.664;2022-09-09T06:34:26;4.70;;;1.20;;
2538;SDS011;1280;49.760;9.664;2022-09-09T06:36:57;5.87;;;1.33;;
2538;SDS011;1280;49.760;9.664;2022-09-09T06:39:32;4.00;;;1.30;;
2538;SDS011;1280;49.760;9.664;2022-09-09T06:42:00;4.10;;;0.97;;
2538;SDS011;1280;49.760;9.664;2022-09-09T06:44:48;5.23;;;1.40;;
2538;SDS011;1280;49.760;9.664;2022-09-09T06:47:33;4.10;;;1.20;;
2538;SDS011;1280;49.760;9.664;2022-09-09T06:50:02;4.50;;;1.37;;
2538;SDS011;1280;49.760;9.664;2022-09-09T06:52:33;7.00;;;1.93;;
2538;SDS011;1280;49.760;9.664;2022-09-09T06:55:01;5.63;;;1.00;;
2538;SDS011;1280;49.760;9.664;2022-09-09T06:57:31;3.10;;;0.73;;
2538;SDS011;1280;49.760;9.664;2022-09-09T07:00:07;3.97;;;1.10;;
2538;SDS011;1280;49.760;9.664;2022-09-09T07:02:37;4.23;;;1.00;;
2538;SDS011;1280;49.760;9.664;2022-09-09T07:05:07;3.83;;;0.90;;
2538;SDS011;1280;49.760;9.664;2022-09-09T07:07:37;6.03;;;1.30;;
2538;SDS011;1280;49.760;9.664;2022-09-09T07:10:07;6.13;;;1.27;;
2538;SDS011;1280;49.760;9.664;2022-09-09T07:12:36;4.37;;;1.00;;
2538;SDS011;1280;49.760;9.664;2022-09-09T07:15:09;4.27;;;0.77;;
2538;SDS011;1280;49.760;9.664;2022-09-09T07:17:42;9.53;;;1.63;;
2538;SDS011;1280;49.760;9.664;2022-09-09T07:20:10;4.23;;;1.03;;
2538;SDS011;1280;49.760;9.664;2022-09-09T07:22:39;5.43;;;0.97;;
2538;SDS011;1280;49.760;9.664;2022-09-09T07:25:08;5.03;;;1.03;;
2538;SDS011;1280;49.760;9.664;2022-09-09T07:27:36;4.03;;;1.00;;
2538;SDS011;1280;49.760;9.664;2022-09-09T07:30:05;4.43;;;1.00;;
2538;SDS011;1280;49.760;9.664;2022-09-09T07:32:35;4.50;;;1.13;;
2538;SDS011;1280;49.760;9.664;2022-09-09T07:35:04;4.43;;;0.93;;
2538;SDS011;1280;49.760;9.664;2022-09-09T07:37:35;4.00;;;1.03;;
2538;SDS011;1280;49.760;9.664;2022-09-09T07:40:04;8.23;;;1.43;;
2538;SDS011;1280;49.760;9.664;2022-09-09T07:42:33;6.10;;;1.30;;
2538;SDS011;1280;49.760;9.664;2022-09-09T07:45:02;7.17;;;1.23;;
2538;SDS011;1280;49.760;9.664;2022-09-09T07:47:32;4.50;;;1.07;;
2538;SDS011;1280;49.760;9.664;2022-09-09T07:50:02;7.47;;;1.17;;
2538;SDS011;1280;49.760;9.664;2022-09-09T07:52:31;5.17;;;1.00;;
2538;SDS011;1280;49.760;9.664;2022-09-09T07:55:03;6.20;;;1.37;;
2538;SDS011;1280;49.760;9.664;2022-09-09T07:57:32;6.30;;;1.33;;
2538;SDS011;1280;49.760;9.664;2022-09-09T08:00:01;8.33;;;1.30;;
2538;SDS011;1280;49.760;9.664;2022-09-09T08:02:37;4.80;;;0.87;;
2538;SDS011;1280;49.760;9.664;2022-09-09T08:05:08;4.97;;;1.20;;
2538;SDS011;1280;49.760;9.664;2022-09-09T08:07:38;5.70;;;1.27;;
2538;SDS011;1280;49.760;9.664;2022-09-09T08:10:06;5.40;;;1.37;;
2538;SDS011;1280;49.760;9.664;2022-09-09T08:12:37;7.43;;;1.23;;
2538;SDS011;1280;49.760;9.664;2022-09-09T08:15:13;5.20;;;0.90;;
2538;SDS011;1280;49.760;9.664;2022-09-09T08:17:42;4.63;;;1.10;;
2538;SDS011;1280;49.760;9.664;2022-09-09T08:20:13;8.07;;;1.37;;
2538;SDS011;1280;49.760;9.664;2022-09-09T08:22:41;5.30;;;1.20;;
2538;SDS011;1280;49.760;9.664;2022-09-09T08:25:10;5.30;;;1.30;;
2538;SDS011;1280;49.760;9.664;2022-09-09T08:27:38;6.93;;;1.20;;
2538;SDS011;1280;49.760;9.664;2022-09-09T08:30:06;7.67;;;1.80;;
2538;SDS011;1280;49.760;9.664;2022-09-09T08:32:35;6.07;;;1.43;;
2538;SDS011;1280;49.760;9.664;2022-09-09T08:35:06;5.90;;;1.03;;
2538;SDS011;1280;49.760;9.664;2022-09-09T08:37:36;5.53;;;1.37;;
2538;SDS011;1280;49.760;9.664;2022-09-09T08:40:05;5.90;;;1.40;;
2538;SDS011;1280;49.760;9.664;2022-09-09T08:42:44;6.07;;;1.30;;
2538;SDS011;1280;49.760;9.664;2022-09-09T08:45:19;8.23;;;1.40;;
2538;SDS011;1280;49.760;9.664;2022-09-09T08:47:57;8.20;;;1.40;;
2538;SDS011;1280;49.760;9.664;2022-09-09T08:50:34;6.83;;;1.40;;
2538;SDS011;1280;49.760;9.664;2022-09-09T08:53:16;5.20;;;1.40;;
2538;SDS011;1280;49.760;9.664;2022-09-09T08:55:50;7.23;;;1.23;;
2538;SDS011;1280;49.760;9.664;2022-09-09T08:58:38;5.00;;;1.00;;
2538;SDS011;1280;49.760;9.664;2022-09-09T09:01:22;5.60;;;1.47;;
2538;SDS011;1280;49.760;9.664;2022-09-09T09:04:21;5.60;;;1.60;;
2538;SDS011;1280;49.760;9.664;2022-09-09T09:07:04;5.43;;;1.80;;
2538;SDS011;1280;49.760;9.664;2022-09-09T09:09:46;6.10;;;1.50;;
2538;SDS011;1280;49.760;9.664;2022-09-09T09:12:20;8.07;;;1.53;;
2538;SDS011;1280;49.760;9.664;2022-09-09T09:14:54;8.10;;;1.23;;
2538;SDS011;1280;49.760;9.664;2022-09-09T09:17:25;5.13;;;1.37;;
2538;SDS011;1280;49.760;9.664;2022-09-09T09:19:58;5.57;;;1.30;;
2538;SDS011;1280;49.760;9.664;2022-09-09T09:22:29;4.90;;;1.20;;
2538;SDS011;1280;49.760;9.664;2022-09-09T09:25:08;5.20;;;1.27;;
2538;SDS011;1280;49.760;9.664;2022-09-09T09:27:47;7.93;;;2.00;;
2538;SDS011;1280;49.760;9.664;2022-09-09T09:30:22;7.23;;;1.60;;
2538;SDS011;1280;49.760;9.664;2022-09-09T09:33:02;5.40;;;1.50;;
2538;SDS011;1280;49.760;9.664;2022-09-09T09:35:39;8.63;;;1.80;;
2538;SDS011;1280;49.760;9.664;2022-09-09T09:38:15;6.43;;;1.27;;
2538;SDS011;1280;49.760;9.664;2022-09-09T09:41:07;5.60;;;1.50;;
2538;SDS011;1280;49.760;9.664;2022-09-09T09:43:36;5.37;;;1.40;;
2538;SDS011;1280;49.760;9.664;2022-09-09T09:46:18;8.80;;;1.63;;
2538;SDS011;1280;49.760;9.664;2022-09-09T09:48:56;7.40;;;1.70;;
2538;SDS011;1280;49.760;9.664;2022-09-09T09:51:26;11.57;;;1.80;;
2538;SDS011;1280;49.760;9.664;2022-09-09T09:54:03;7.83;;;1.87;;
2538;SDS011;1280;49.760;9.664;2022-09-09T09:56:38;5.40;;;1.30;;
2538;SDS011;1280;49.760;9.664;2022-09-09T09:59:18;5.80;;;1.23;;
2538;SDS011;1280;49.760;9.664;2022-09-09T10:02:17;7.83;;;1.27;;
2538;SDS011;1280;49.760;9.664;2022-09-09T10:05:00;10.07;;;2.00;;
2538;SDS011;1280;49.760;9.664;2022-09-09T10:07:29;7.53;;;1.83;;
2538;SDS011;1280;49.760;9.664;2022-09-09T10:09:59;7.30;;;2.30;;
2538;SDS011;1280;49.760;9.664;2022-09-09T10:12:33;6.93;;;1.90;;
2538;SDS011;1280;49.760;9.664;2022-09-09T10:15:16;8.10;;;1.77;;
2538;SDS011;1280;49.760;9.664;2022-09-09T10:17:59;7.80;;;1.73;;
2538;SDS011;1280;49.760;9.664;2022-09-09T10:20:42;7.03;;;1.43;;
2538;SDS011;1280;49.760;9.664;2022-09-09T10:23:21;5.10;;;1.20;;
2538;SDS011;1280;49.760;9.664;2022-09-09T10:26:10;10.33;;;1.27;;
2538;SDS011;1280;49.760;9.664;2022-09-09T10:28:55;6.90;;;1.33;;
2538;SDS011;1280;49.760;9.664;2022-09-09T10:31:37;7.77;;;1.20;;
2538;SDS011;1280;49.760;9.664;2022-09-09T10:34:18;6.23;;;1.20;;
2538;SDS011;1280;49.760;9.664;2022-09-09T10:36:58;3.93;;;0.60;;
2538;SDS011;1280;49.760;9.664;2022-09-09T10:39:31;4.27;;;1.10;;
2538;SDS011;1280;49.760;9.664;2022-09-09T10:42:09;3.77;;;0.90;;
2538;SDS011;1280;49.760;9.664;2022-09-09T10:44:54;7.10;;;0.80;;
2538;SDS011;1280;49.760;9.664;2022-09-09T10:47:40;7.37;;;2.10;;
2538;SDS011;1280;49.760;9.664;2022-09-09T10:53:36;3.47;;;0.70;;
2538;SDS011;1280;49.760;9.664;2022-09-09T10:56:09;4.03;;;0.73;;
2538;SDS011;1280;49.760;9.664;2022-09-09T10:58:41;5.03;;;0.97;;
2538;SDS011;1280;49.760;9.664;2022-09-09T11:01:17;4.50;;;0.80;;
2538;SDS011;1280;49.760;9.664;2022-09-09T11:03:51;4.50;;;0.70;;
2538;SDS011;1280;49.760;9.664;2022-09-09T11:06:23;4.30;;;1.07;;
2538;SDS011;1280;49.760;9.664;2022-09-09T11:08:59;6.40;;;0.90;;
2538;SDS011;1280;49.760;9.664;2022-09-09T11:11:31;3.60;;;1.00;;
2538;SDS011;1280;49.760;9.664;2022-09-09T11:14:05;9.60;;;1.17;;
2538;SDS011;1280;49.760;9.664;2022-09-09T11:16:41;6.43;;;1.23;;
2538;SDS011;1280;49.760;9.664;2022-09-09T11:19:17;6.67;;;1.30;;
2538;SDS011;1280;49.760;9.664;2022-09-09T11:21:49;5.03;;;1.13;;
2538;SDS011;1280;49.760;9.664;2022-09-09T11:24:20;6.43;;;1.27;;
2538;SDS011;1280;49.760;9.664;2022-09-09T11:26:53;6.17;;;1.37;;
2538;SDS011;1280;49.760;9.664;2022-09-09T11:29:31;5.73;;;1.57;;
2538;SDS011;1280;49.760;9.664;2022-09-09T11:32:39;5.73;;;1.60;;
2538;SDS011;1280;49.760;9.664;2022-09-09T11:35:22;7.60;;;1.47;;
2538;SDS011;1280;49.760;9.664;2022-09-09T11:38:21;7.53;;;1.67;;
2538;SDS011;1280;49.760;9.664;2022-09-09T11:40:55;6.47;;;1.17;;
2538;SDS011;1280;49.760;9.664;2022-09-09T11:43:27;8.60;;;1.30;;
2538;SDS011;1280;49.760;9.664;2022-09-09T11:45:59;7.80;;;1.10;;
2538;SDS011;1280;49.760;9.664;2022-09-09T11:48:33;5.67;;;1.10;;
2538;SDS011;1280;49.760;9.664;2022-09-09T11:51:04;13.43;;;1.30;;
2538;SDS011;1280;49.760;9.664;2022-09-09T11:53:49;7.33;;;1.40;;
2538;SDS011;1280;49.760;9.664;2022-09-09T11:56:25;4.60;;;1.17;;
2538;SDS011;1280;49.760;9.664;2022-09-09T11:58:57;4.83;;;1.00;;
2538;SDS011;1280;49.760;9.664;2022-09-09T12:01:35;5.60;;;1.47;;
2538;SDS011;1280;49.760;9.664;2022-09-09T12:04:16;8.20;;;1.40;;
2538;SDS011;1280;49.760;9.664;2022-09-09T12:06:56;6.07;;;1.60;;
2538;SDS011;1280;49.760;9.664;2022-09-09T12:09:43;4.20;;;1.10;;
2538;SDS011;1280;49.760;9.664;2022-09-09T12:12:25;3.90;;;1.07;;
2538;SDS011;1280;49.760;9.664;2022-09-09T12:17:47;7.50;;;1.30;;
2538;SDS011;1280;49.760;9.664;2022-09-09T12:20:19;5.70;;;1.10;;
2538;SDS011;1280;49.760;9.664;2022-09-09T12:23:12;7.27;;;1.30;;
2538;SDS011;1280;49.760;9.664;2022-09-09T12:25:54;6.50;;;1.33;;
2538;SDS011;1280;49.760;9.664;2022-09-09T12:28:39;4.90;;;1.03;;
2538;SDS011;1280;49.760;9.664;2022-09-09T12:31:12;6.67;;;1.43;;
2538;SDS011;1280;49.760;9.664;2022-09-09T12:33:45;6.93;;;1.40;;
2538;SDS011;1280;49.760;9.664;2022-09-09T12:36:16;4.73;;;1.20;;
2538;SDS011;1280;49.760;9.664;2022-09-09T12:38:46;4.07;;;1.17;;
2538;SDS011;1280;49.760;9.664;2022-09-09T12:41:20;6.70;;;1.30;;
2538;SDS011;1280;49.760;9.664;2022-09-09T12:43:49;6.20;;;1.40;;
2538;SDS011;1280;49.760;9.664;2022-09-09T12:46:21;5.50;;;1.10;;
2538;SDS011;1280;49.760;9.664;2022-09-09T12:48:54;4.80;;;1.00;;
2538;SDS011;1280;49.760;9.664;2022-09-09T12:51:26;5.97;;;1.17;;
2538;SDS011;1280;49.760;9.664;2022-09-09T12:53:59;4.47;;;1.00;;
2538;SDS011;1280;49.760;9.664;2022-09-09T12:56:28;6.50;;;1.33;;
2538;SDS011;1280;49.760;9.664;2022-09-09T12:58:58;5.53;;;0.70;;
2538;SDS011;1280;49.760;9.664;2022-09-09T13:01:28;5.03;;;1.10;;
2538;SDS011;1280;49.760;9.664;2022-09-09T13:03:57;5.07;;;1.17;;
2538;SDS011;1280;49.760;9.664;2022-09-09T13:06:28;5.20;;;1.00;;
2538;SDS011;1280;49.760;9.664;2022-09-09T13:08:58;3.87;;;1.00;;
2538;SDS011;1280;49.760;9.664;2022-09-09T13:11:28;6.50;;;1.30;;
2538;SDS011;1280;49.760;9.664;2022-09-09T13:13:59;6.47;;;1.20;;
2538;SDS011;1280;49.760;9.664;2022-09-09T13:16:28;4.03;;;0.77;;
2538;SDS011;1280;49.760;9.664;2022-09-09T13:19:00;5.33;;;1.37;;
2538;SDS011;1280;49.760;9.664;2022-09-09T13:21:35;5.60;;;0.87;;
2538;SDS011;1280;49.760;9.664;2022-09-09T13:24:05;5.00;;;2.20;;
2538;SDS011;1280;49.760;9.664;2022-09-09T13:26:36;6.10;;;0.73;;
2538;SDS011;1280;49.760;9.664;2022-09-09T13:29:13;6.77;;;1.17;;
2538;SDS011;1280;49.760;9.664;2022-09-09T13:31:45;8.73;;;1.20;;
2538;SDS011;1280;49.760;9.664;2022-09-09T13:34:13;6.43;;;1.10;;
2538;SDS011;1280;49.760;9.664;2022-09-09T13:36:55;5.70;;;1.33;;
2538;SDS011;1280;49.760;9.664;2022-09-09T13:39:28;6.50;;;1.20;;
2538;SDS011;1280;49.760;9.664;2022-09-09T13:41:56;5.30;;;0.67;;
2538;SDS011;1280;49.760;9.664;2022-09-09T13:44:25;4.90;;;0.90;;
2538;SDS011;1280;49.760;9.664;2022-09-09T13:47:01;6.80;;;0.90;;
2538;SDS011;1280;49.760;9.664;2022-09-09T13:49:36;5.20;;;0.83;;
2538;SDS011;1280;49.760;9.664;2022-09-09T13:52:08;6.63;;;0.97;;
2538;SDS011;1280;49.760;9.664;2022-09-09T13:54:38;7.87;;;1.07;;
2538;SDS011;1280;49.760;9.664;2022-09-09T13:57:13;7.00;;;1.10;;
2538;SDS011;1280;49.760;9.664;2022-09-09T13:59:43;4.57;;;0.77;;
2538;SDS011;1280;49.760;9.664;2022-09-09T14:02:30;5.10;;;1.00;;
2538;SDS011;1280;49.760;9.664;2022-09-09T14:04:59;5.37;;;1.20;;
2538;SDS011;1280;49.760;9.664;2022-09-09T14:07:28;5.73;;;1.37;;
2538;SDS011;1280;49.760;9.664;2022-09-09T14:09:56;4.03;;;0.70;;
2538;SDS011;1280;49.760;9.664;2022-09-09T14:12:26;4.40;;;0.93;;
2538;SDS011;1280;49.760;9.664;2022-09-09T14:14:54;4.63;;;1.00;;
2538;SDS011;1280;49.760;9.664;2022-09-09T14:17:22;4.43;;;1.00;;
2538;SDS011;1280;49.760;9.664;2022-09-09T14:19:51;5.17;;;1.23;;
2538;SDS011;1280;49.760;9.664;2022-09-09T14:22:19;9.20;;;0.87;;
2538;SDS011;1280;49.760;9.664;2022-09-09T14:24:49;7.23;;;1.00;;
2538;SDS011;1280;49.760;9.664;2022-09-09T14:27:17;7.70;;;1.03;;
2538;SDS011;1280;49.760;9.664;2022-09-09T14:29:46;5.50;;;1.40;;
2538;SDS011;1280;49.760;9.664;2022-09-09T14:32:13;3.77;;;0.93;;
2538;SDS011;1280;49.760;9.664;2022-09-09T14:34:42;3.63;;;0.90;;
2538;SDS011;1280;49.760;9.664;2022-09-09T14:37:10;7.73;;;1.47;;
2538;SDS011;1280;49.760;9.664;2022-09-09T14:39:38;3.40;;;0.77;;
2538;SDS011;1280;49.760;9.664;2022-09-09T14:42:08;4.60;;;1.13;;
2538;SDS011;1280;49.760;9.664;2022-09-09T14:44:37;4.80;;;0.90;;
2538;SDS011;1280;49.760;9.664;2022-09-09T14:47:05;4.23;;;0.90;;
2538;SDS011;1280;49.760;9.664;2022-09-09T14:49:34;4.87;;;1.40;;
2538;SDS011;1280;49.760;9.664;2022-09-09T14:52:02;4.23;;;0.80;;
2538;SDS011;1280;49.760;9.664;2022-09-09T14:54:31;4.30;;;1.03;;
2538;SDS011;1280;49.760;9.664;2022-09-09T14:56:59;4.17;;;0.77;;
2538;SDS011;1280;49.760;9.664;2022-09-09T14:59:28;4.53;;;1.00;;
2538;SDS011;1280;49.760;9.664;2022-09-09T15:01:56;5.20;;;1.13;;
2538;SDS011;1280;49.760;9.664;2022-09-09T15:04:24;3.63;;;1.00;;
2538;SDS011;1280;49.760;9.664;2022-09-09T15:06:53;5.43;;;0.90;;
2538;SDS011;1280;49.760;9.664;2022-09-09T15:09:21;4.70;;;0.80;;
2538;SDS011;1280;49.760;9.664;2022-09-09T15:11:49;8.60;;;1.10;;
2538;SDS011;1280;49.760;9.664;2022-09-09T15:14:17;6.63;;;0.90;;
2538;SDS011;1280;49.760;9.664;2022-09-09T15:16:52;6.03;;;0.80;;
2538;SDS011;1280;49.760;9.664;2022-09-09T15:19:20;8.17;;;0.87;;
2538;SDS011;1280;49.760;9.664;2022-09-09T15:21:48;5.00;;;0.93;;
2538;SDS011;1280;49.760;9.664;2022-09-09T15:24:16;4.93;;;0.60;;
2538;SDS011;1280;49.760;9.664;2022-09-09T15:26:44;6.30;;;1.00;;
2538;SDS011;1280;49.760;9.664;2022-09-09T15:29:12;6.23;;;0.80;;
2538;SDS011;1280;49.760;9.664;2022-09-09T15:31:40;3.60;;;0.87;;
2538;SDS011;1280;49.760;9.664;2022-09-09T15:34:09;5.00;;;1.00;;
2538;SDS011;1280;49.760;9.664;2022-09-09T15:36:38;5.20;;;0.70;;
2538;SDS011;1280;49.760;9.664;2022-09-09T15:39:07;4.70;;;0.93;;
2538;SDS011;1280;49.760;9.664;2022-09-09T15:41:38;5.00;;;0.70;;
2538;SDS011;1280;49.760;9.664;2022-09-09T15:44:07;3.40;;;0.60;;
2538;SDS011;1280;49.760;9.664;2022-09-09T15:46:38;3.37;;;0.60;;
2538;SDS011;1280;49.760;9.664;2022-09-09T15:49:08;3.83;;;0.60;;
2538;SDS011;1280;49.760;9.664;2022-09-09T15:51:39;4.80;;;0.70;;
2538;SDS011;1280;49.760;9.664;2022-09-09T15:54:10;3.87;;;0.50;;
2538;SDS011;1280;49.760;9.664;2022-09-09T15:56:39;4.00;;;1.00;;
2538;SDS011;1280;49.760;9.664;2022-09-09T15:59:08;3.37;;;0.60;;